sensor_id;sensor_type;location;lat;lon;timestamp;P1;durP1;ratioP1;P2;durP2;ratioP2
40669;SDS011;26355;45.528;9.234;2023-08-20T00:00:56;21.23;;;12.32;;
40669;SDS011;26355;45.528;9.234;2023-08-20T00:03:21;21.20;;;12.38;;
40669;SDS011;26355;45.528;9.234;2023-08-20T00:05:47;25.80;;;13.52;;
40669;SDS011;26355;45.528;9.234;2023-08-20T00:08:13;19.80;;;12.73;;
40669;SDS011;26355;45.528;9.234;2023-08-20T00:10:39;20.35;;;12.43;;
40669;SDS011;26355;45.528;9.234;2023-08-20T00:13:04;20.60;;;13.00;;
40669;SDS011;26355;45.528;9.234;2023-08-20T00:15:30;20.67;;;11.90;;
40669;SDS011;26355;45.528;9.234;2023-08-20T00:17:56;23.50;;;12.85;;
40669;SDS011;26355;45.528;9.234;2023-08-20T00:20:22;19.50;;;11.98;;
40669;SDS011;26355;45.528;9.234;2023-08-20T00:22:48;22.30;;;11.98;;
40669;SDS011;26355;45.528;9.234;2023-08-20T00:25:14;19.80;;;11.73;;
40669;SDS011;26355;45.528;9.234;2023-08-20T00:30:07;21.00;;;11.77;;
40669;SDS011;26355;45.528;9.234;2023-08-20T00:32:33;20.48;;;12.30;;
40669;SDS011;26355;45.528;9.234;2023-08-20T00:34:59;19.77;;;12.07;;
40669;SDS011;26355;45.528;9.234;2023-08-20T00:37:25;19.20;;;11.63;;
40669;SDS011;26355;45.528;9.234;2023-08-20T00:39:51;20.58;;;12.45;;
40669;SDS011;26355;45.528;9.234;2023-08-20T00:42:16;19.45;;;12.00;;
40669;SDS011;26355;45.528;9.234;2023-08-20T00:44:42;19.75;;;11.77;;
40669;SDS011;26355;45.528;9.234;2023-08-20T00:47:11;20.92;;;12.52;;
40669;SDS011;26355;45.528;9.234;2023-08-20T00:49:39;19.00;;;11.73;;
40669;SDS011;26355;45.528;9.234;2023-08-20T00:52:06;21.13;;;11.73;;
40669;SDS011;26355;45.528;9.234;2023-08-20T00:54:33;20.73;;;12.30;;
40669;SDS011;26355;45.528;9.234;2023-08-20T00:57:00;21.10;;;12.10;;
40669;SDS011;26355;45.528;9.234;2023-08-20T00:59:29;20.02;;;12.38;;
40669;SDS011;26355;45.528;9.234;2023-08-20T01:01:57;19.35;;;11.50;;
40669;SDS011;26355;45.528;9.234;2023-08-20T01:04:22;20.55;;;12.27;;
40669;SDS011;26355;45.528;9.234;2023-08-20T01:06:51;20.23;;;12.00;;
40669;SDS011;26355;45.528;9.234;2023-08-20T01:12:23;21.80;;;12.57;;
40669;SDS011;26355;45.528;9.234;2023-08-20T01:17:16;19.93;;;12.13;;
40669;SDS011;26355;45.528;9.234;2023-08-20T01:19:41;19.13;;;11.45;;
40669;SDS011;26355;45.528;9.234;2023-08-20T01:30:10;20.63;;;11.65;;
40669;SDS011;26355;45.528;9.234;2023-08-20T01:32:37;19.65;;;11.50;;
40669;SDS011;26355;45.528;9.234;2023-08-20T01:35:07;19.35;;;11.85;;
40669;SDS011;26355;45.528;9.234;2023-08-20T01:37:39;21.02;;;11.77;;
40669;SDS011;26355;45.528;9.234;2023-08-20T01:40:05;19.83;;;11.82;;
40669;SDS011;26355;45.528;9.234;2023-08-20T01:42:32;20.17;;;11.40;;
40669;SDS011;26355;45.528;9.234;2023-08-20T01:44:58;19.48;;;11.02;;
40669;SDS011;26355;45.528;9.234;2023-08-20T01:47:23;22.20;;;12.15;;
40669;SDS011;26355;45.528;9.234;2023-08-20T01:49:49;20.30;;;12.20;;
40669;SDS011;26355;45.528;9.234;2023-08-20T01:52:14;22.08;;;11.88;;
40669;SDS011;26355;45.528;9.234;2023-08-20T01:54:40;20.55;;;11.20;;
40669;SDS011;26355;45.528;9.234;2023-08-20T01:57:06;22.40;;;12.25;;
40669;SDS011;26355;45.528;9.234;2023-08-20T01:59:31;18.98;;;11.57;;
40669;SDS011;26355;45.528;9.234;2023-08-20T02:01:57;22.05;;;12.05;;
40669;SDS011;26355;45.528;9.234;2023-08-20T02:04:22;19.67;;;11.10;;
40669;SDS011;26355;45.528;9.234;2023-08-20T02:06:48;19.40;;;11.98;;
40669;SDS011;26355;45.528;9.234;2023-08-20T02:09:13;19.92;;;11.63;;
40669;SDS011;26355;45.528;9.234;2023-08-20T02:11:39;17.80;;;11.13;;
40669;SDS011;26355;45.528;9.234;2023-08-20T02:14:04;19.08;;;12.13;;
40669;SDS011;26355;45.528;9.234;2023-08-20T02:16:30;20.35;;;11.48;;
40669;SDS011;26355;45.528;9.234;2023-08-20T02:18:56;18.83;;;11.30;;
40669;SDS011;26355;45.528;9.234;2023-08-20T02:21:21;18.08;;;11.38;;
40669;SDS011;26355;45.528;9.234;2023-08-20T02:23:47;20.02;;;11.90;;
40669;SDS011;26355;45.528;9.234;2023-08-20T02:26:13;19.20;;;11.65;;
40669;SDS011;26355;45.528;9.234;2023-08-20T02:31:05;20.83;;;12.03;;
40669;SDS011;26355;45.528;9.234;2023-08-20T02:33:31;19.95;;;11.48;;
40669;SDS011;26355;45.528;9.234;2023-08-20T02:36:03;19.80;;;12.30;;
40669;SDS011;26355;45.528;9.234;2023-08-20T02:38:29;21.60;;;12.20;;
40669;SDS011;26355;45.528;9.234;2023-08-20T02:40:55;23.20;;;12.20;;
40669;SDS011;26355;45.528;9.234;2023-08-20T02:43:20;22.80;;;11.82;;
40669;SDS011;26355;45.528;9.234;2023-08-20T02:45:46;20.33;;;11.68;;
40669;SDS011;26355;45.528;9.234;2023-08-20T02:48:13;20.48;;;11.88;;
40669;SDS011;26355;45.528;9.234;2023-08-20T02:50:39;20.75;;;11.90;;
40669;SDS011;26355;45.528;9.234;2023-08-20T02:53:04;20.33;;;12.45;;
40669;SDS011;26355;45.528;9.234;2023-08-20T02:55:30;20.08;;;11.85;;
40669;SDS011;26355;45.528;9.234;2023-08-20T02:57:57;19.63;;;11.65;;
40669;SDS011;26355;45.528;9.234;2023-08-20T03:00:23;23.88;;;11.57;;
40669;SDS011;26355;45.528;9.234;2023-08-20T03:02:48;21.55;;;12.10;;
40669;SDS011;26355;45.528;9.234;2023-08-20T03:05:14;18.77;;;11.98;;
40669;SDS011;26355;45.528;9.234;2023-08-20T03:07:39;21.92;;;12.07;;
40669;SDS011;26355;45.528;9.234;2023-08-20T03:10:05;19.88;;;11.68;;
40669;SDS011;26355;45.528;9.234;2023-08-20T03:12:31;19.80;;;12.00;;
40669;SDS011;26355;45.528;9.234;2023-08-20T03:14:57;21.13;;;11.75;;
40669;SDS011;26355;45.528;9.234;2023-08-20T03:17:24;19.83;;;11.95;;
40669;SDS011;26355;45.528;9.234;2023-08-20T03:19:57;21.65;;;12.38;;
40669;SDS011;26355;45.528;9.234;2023-08-20T03:22:24;19.35;;;11.63;;
40669;SDS011;26355;45.528;9.234;2023-08-20T03:24:51;18.52;;;12.00;;
40669;SDS011;26355;45.528;9.234;2023-08-20T03:27:17;21.98;;;12.02;;
40669;SDS011;26355;45.528;9.234;2023-08-20T03:29:44;21.88;;;12.15;;
40669;SDS011;26355;45.528;9.234;2023-08-20T03:32:10;20.92;;;11.82;;
40669;SDS011;26355;45.528;9.234;2023-08-20T03:34:36;19.25;;;12.02;;
40669;SDS011;26355;45.528;9.234;2023-08-20T03:37:01;19.33;;;12.13;;
40669;SDS011;26355;45.528;9.234;2023-08-20T03:39:27;19.73;;;11.83;;
40669;SDS011;26355;45.528;9.234;2023-08-20T03:41:53;20.45;;;11.73;;
40669;SDS011;26355;45.528;9.234;2023-08-20T03:44:19;20.38;;;11.77;;
40669;SDS011;26355;45.528;9.234;2023-08-20T03:46:45;21.00;;;12.57;;
40669;SDS011;26355;45.528;9.234;2023-08-20T03:49:10;20.13;;;12.52;;
40669;SDS011;26355;45.528;9.234;2023-08-20T03:51:36;21.95;;;12.48;;
40669;SDS011;26355;45.528;9.234;2023-08-20T03:54:02;22.30;;;12.13;;
40669;SDS011;26355;45.528;9.234;2023-08-20T03:56:28;21.65;;;12.52;;
40669;SDS011;26355;45.528;9.234;2023-08-20T03:58:53;22.17;;;12.27;;
40669;SDS011;26355;45.528;9.234;2023-08-20T04:01:20;19.52;;;11.88;;
40669;SDS011;26355;45.528;9.234;2023-08-20T04:03:45;18.35;;;11.85;;
40669;SDS011;26355;45.528;9.234;2023-08-20T04:06:12;20.45;;;11.85;;
40669;SDS011;26355;45.528;9.234;2023-08-20T04:08:37;21.42;;;11.95;;
40669;SDS011;26355;45.528;9.234;2023-08-20T04:11:03;19.25;;;11.63;;
40669;SDS011;26355;45.528;9.234;2023-08-20T04:13:29;19.50;;;11.63;;
40669;SDS011;26355;45.528;9.234;2023-08-20T04:15:55;21.85;;;12.65;;
40669;SDS011;26355;45.528;9.234;2023-08-20T04:18:21;21.80;;;12.05;;
40669;SDS011;26355;45.528;9.234;2023-08-20T04:20:47;21.20;;;11.90;;
40669;SDS011;26355;45.528;9.234;2023-08-20T04:23:14;20.77;;;12.50;;
40669;SDS011;26355;45.528;9.234;2023-08-20T04:25:40;20.77;;;11.65;;
40669;SDS011;26355;45.528;9.234;2023-08-20T04:28:06;20.67;;;11.32;;
40669;SDS011;26355;45.528;9.234;2023-08-20T04:30:31;18.13;;;10.88;;
40669;SDS011;26355;45.528;9.234;2023-08-20T04:32:59;20.05;;;12.13;;
40669;SDS011;26355;45.528;9.234;2023-08-20T04:35:24;18.80;;;11.55;;
40669;SDS011;26355;45.528;9.234;2023-08-20T04:37:50;19.45;;;11.20;;
40669;SDS011;26355;45.528;9.234;2023-08-20T04:40:16;20.00;;;11.43;;
40669;SDS011;26355;45.528;9.234;2023-08-20T04:42:41;21.02;;;10.52;;
40669;SDS011;26355;45.528;9.234;2023-08-20T04:45:07;19.73;;;11.10;;
40669;SDS011;26355;45.528;9.234;2023-08-20T04:47:33;20.70;;;11.10;;
40669;SDS011;26355;45.528;9.234;2023-08-20T04:49:59;22.08;;;11.35;;
40669;SDS011;26355;45.528;9.234;2023-08-20T04:52:24;19.48;;;10.80;;
40669;SDS011;26355;45.528;9.234;2023-08-20T04:54:50;18.58;;;10.98;;
40669;SDS011;26355;45.528;9.234;2023-08-20T04:57:15;19.40;;;10.80;;
40669;SDS011;26355;45.528;9.234;2023-08-20T04:59:41;18.80;;;10.80;;
40669;SDS011;26355;45.528;9.234;2023-08-20T05:02:10;18.88;;;10.77;;
40669;SDS011;26355;45.528;9.234;2023-08-20T05:04:36;19.52;;;10.15;;
40669;SDS011;26355;45.528;9.234;2023-08-20T05:07:02;19.65;;;10.60;;
40669;SDS011;26355;45.528;9.234;2023-08-20T05:09:28;18.98;;;10.10;;
40669;SDS011;26355;45.528;9.234;2023-08-20T05:11:54;17.90;;;10.35;;
40669;SDS011;26355;45.528;9.234;2023-08-20T05:14:19;19.17;;;10.27;;
40669;SDS011;26355;45.528;9.234;2023-08-20T05:16:45;18.92;;;10.80;;
40669;SDS011;26355;45.528;9.234;2023-08-20T05:19:10;20.85;;;11.00;;
40669;SDS011;26355;45.528;9.234;2023-08-20T05:21:36;17.48;;;10.40;;
40669;SDS011;26355;45.528;9.234;2023-08-20T05:24:02;20.48;;;10.73;;
40669;SDS011;26355;45.528;9.234;2023-08-20T05:26:28;18.45;;;10.30;;
40669;SDS011;26355;45.528;9.234;2023-08-20T05:28:54;18.17;;;10.25;;
40669;SDS011;26355;45.528;9.234;2023-08-20T05:31:19;18.17;;;9.77;;
40669;SDS011;26355;45.528;9.234;2023-08-20T05:33:45;20.60;;;10.43;;
40669;SDS011;26355;45.528;9.234;2023-08-20T05:36:10;19.58;;;10.27;;
40669;SDS011;26355;45.528;9.234;2023-08-20T05:38:36;23.50;;;10.60;;
40669;SDS011;26355;45.528;9.234;2023-08-20T05:41:01;17.38;;;9.35;;
40669;SDS011;26355;45.528;9.234;2023-08-20T05:43:27;19.60;;;9.90;;
40669;SDS011;26355;45.528;9.234;2023-08-20T05:45:52;18.02;;;10.07;;
40669;SDS011;26355;45.528;9.234;2023-08-20T05:48:18;18.40;;;10.88;;
40669;SDS011;26355;45.528;9.234;2023-08-20T05:50:44;18.30;;;10.50;;
40669;SDS011;26355;45.528;9.234;2023-08-20T05:53:09;18.73;;;10.15;;
40669;SDS011;26355;45.528;9.234;2023-08-20T05:55:35;17.75;;;9.85;;
40669;SDS011;26355;45.528;9.234;2023-08-20T05:58:01;18.33;;;9.90;;
40669;SDS011;26355;45.528;9.234;2023-08-20T06:00:27;19.33;;;10.15;;
40669;SDS011;26355;45.528;9.234;2023-08-20T06:02:52;19.52;;;10.13;;
40669;SDS011;26355;45.528;9.234;2023-08-20T06:05:18;18.48;;;10.40;;
40669;SDS011;26355;45.528;9.234;2023-08-20T06:07:43;17.15;;;9.65;;
40669;SDS011;26355;45.528;9.234;2023-08-20T06:10:09;16.65;;;9.95;;
40669;SDS011;26355;45.528;9.234;2023-08-20T06:12:36;19.73;;;10.60;;
40669;SDS011;26355;45.528;9.234;2023-08-20T06:15:01;21.15;;;10.00;;
40669;SDS011;26355;45.528;9.234;2023-08-20T06:17:27;19.45;;;9.60;;
40669;SDS011;26355;45.528;9.234;2023-08-20T06:19:53;20.40;;;9.95;;
40669;SDS011;26355;45.528;9.234;2023-08-20T06:22:18;19.80;;;10.05;;
40669;SDS011;26355;45.528;9.234;2023-08-20T06:24:44;17.38;;;10.05;;
40669;SDS011;26355;45.528;9.234;2023-08-20T06:27:10;18.08;;;9.38;;
40669;SDS011;26355;45.528;9.234;2023-08-20T06:29:35;18.63;;;10.63;;
40669;SDS011;26355;45.528;9.234;2023-08-20T06:32:01;18.45;;;9.50;;
40669;SDS011;26355;45.528;9.234;2023-08-20T06:34:27;19.33;;;9.60;;
40669;SDS011;26355;45.528;9.234;2023-08-20T06:36:52;19.30;;;10.18;;
40669;SDS011;26355;45.528;9.234;2023-08-20T06:39:18;20.52;;;9.80;;
40669;SDS011;26355;45.528;9.234;2023-08-20T06:41:44;16.73;;;9.68;;
40669;SDS011;26355;45.528;9.234;2023-08-20T06:44:10;20.45;;;9.32;;
40669;SDS011;26355;45.528;9.234;2023-08-20T06:46:36;16.83;;;9.13;;
40669;SDS011;26355;45.528;9.234;2023-08-20T06:49:02;19.20;;;9.75;;
40669;SDS011;26355;45.528;9.234;2023-08-20T06:51:28;18.70;;;9.55;;
40669;SDS011;26355;45.528;9.234;2023-08-20T06:53:53;17.70;;;9.53;;
40669;SDS011;26355;45.528;9.234;2023-08-20T06:56:20;16.63;;;8.98;;
40669;SDS011;26355;45.528;9.234;2023-08-20T06:58:46;17.83;;;9.25;;
40669;SDS011;26355;45.528;9.234;2023-08-20T07:01:11;17.25;;;9.43;;
40669;SDS011;26355;45.528;9.234;2023-08-20T07:03:38;19.10;;;8.70;;
40669;SDS011;26355;45.528;9.234;2023-08-20T07:06:05;16.38;;;8.10;;
40669;SDS011;26355;45.528;9.234;2023-08-20T07:08:31;17.83;;;8.52;;
40669;SDS011;26355;45.528;9.234;2023-08-20T07:10:57;18.17;;;8.50;;
40669;SDS011;26355;45.528;9.234;2023-08-20T07:13:23;16.03;;;7.70;;
40669;SDS011;26355;45.528;9.234;2023-08-20T07:15:49;16.33;;;7.23;;
40669;SDS011;26355;45.528;9.234;2023-08-20T07:18:14;16.95;;;7.72;;
40669;SDS011;26355;45.528;9.234;2023-08-20T07:20:43;15.47;;;8.10;;
40669;SDS011;26355;45.528;9.234;2023-08-20T07:23:09;16.15;;;8.27;;
40669;SDS011;26355;45.528;9.234;2023-08-20T07:25:36;16.50;;;8.17;;
40669;SDS011;26355;45.528;9.234;2023-08-20T07:28:02;16.45;;;8.27;;
40669;SDS011;26355;45.528;9.234;2023-08-20T07:30:29;18.27;;;8.65;;
40669;SDS011;26355;45.528;9.234;2023-08-20T07:32:55;17.03;;;8.20;;
40669;SDS011;26355;45.528;9.234;2023-08-20T07:35:20;16.03;;;7.97;;
40669;SDS011;26355;45.528;9.234;2023-08-20T07:37:46;15.97;;;7.17;;
40669;SDS011;26355;45.528;9.234;2023-08-20T07:40:12;16.95;;;7.00;;
40669;SDS011;26355;45.528;9.234;2023-08-20T07:42:38;16.83;;;7.13;;
40669;SDS011;26355;45.528;9.234;2023-08-20T07:45:05;17.85;;;7.22;;
40669;SDS011;26355;45.528;9.234;2023-08-20T07:47:32;15.40;;;7.30;;
40669;SDS011;26355;45.528;9.234;2023-08-20T07:49:58;15.87;;;7.10;;
40669;SDS011;26355;45.528;9.234;2023-08-20T07:52:23;21.37;;;7.97;;
40669;SDS011;26355;45.528;9.234;2023-08-20T07:54:49;14.87;;;6.97;;
40669;SDS011;26355;45.528;9.234;2023-08-20T07:57:14;16.47;;;7.47;;
40669;SDS011;26355;45.528;9.234;2023-08-20T07:59:40;17.53;;;8.00;;
40669;SDS011;26355;45.528;9.234;2023-08-20T08:02:05;14.60;;;7.00;;
40669;SDS011;26355;45.528;9.234;2023-08-20T08:04:31;15.87;;;7.23;;
40669;SDS011;26355;45.528;9.234;2023-08-20T08:06:57;15.60;;;7.20;;
40669;SDS011;26355;45.528;9.234;2023-08-20T08:09:31;15.03;;;7.10;;
40669;SDS011;26355;45.528;9.234;2023-08-20T08:11:57;15.85;;;7.28;;
40669;SDS011;26355;45.528;9.234;2023-08-20T08:14:23;15.77;;;7.00;;
40669;SDS011;26355;45.528;9.234;2023-08-20T08:16:50;16.85;;;7.75;;
40669;SDS011;26355;45.528;9.234;2023-08-20T08:19:15;16.37;;;6.70;;
40669;SDS011;26355;45.528;9.234;2023-08-20T08:21:42;17.95;;;7.63;;
40669;SDS011;26355;45.528;9.234;2023-08-20T08:24:08;15.73;;;7.55;;
40669;SDS011;26355;45.528;9.234;2023-08-20T08:26:35;15.68;;;7.65;;
40669;SDS011;26355;45.528;9.234;2023-08-20T08:29:05;15.63;;;7.17;;
40669;SDS011;26355;45.528;9.234;2023-08-20T08:31:32;16.92;;;7.30;;
40669;SDS011;26355;45.528;9.234;2023-08-20T08:33:58;16.83;;;7.38;;
40669;SDS011;26355;45.528;9.234;2023-08-20T08:36:23;16.37;;;7.17;;
40669;SDS011;26355;45.528;9.234;2023-08-20T08:38:52;14.77;;;7.20;;
40669;SDS011;26355;45.528;9.234;2023-08-20T08:41:18;19.13;;;7.57;;
40669;SDS011;26355;45.528;9.234;2023-08-20T08:43:50;15.93;;;7.45;;
40669;SDS011;26355;45.528;9.234;2023-08-20T08:46:16;15.80;;;7.20;;
40669;SDS011;26355;45.528;9.234;2023-08-20T08:48:42;15.48;;;7.00;;
40669;SDS011;26355;45.528;9.234;2023-08-20T08:51:09;18.33;;;7.03;;
40669;SDS011;26355;45.528;9.234;2023-08-20T08:53:37;14.98;;;7.25;;
40669;SDS011;26355;45.528;9.234;2023-08-20T08:56:03;16.07;;;7.47;;
40669;SDS011;26355;45.528;9.234;2023-08-20T08:58:30;16.58;;;7.10;;
40669;SDS011;26355;45.528;9.234;2023-08-20T09:03:22;14.37;;;6.60;;
40669;SDS011;26355;45.528;9.234;2023-08-20T09:05:50;17.75;;;7.10;;
40669;SDS011;26355;45.528;9.234;2023-08-20T09:08:22;14.70;;;7.28;;
40669;SDS011;26355;45.528;9.234;2023-08-20T09:10:55;16.80;;;7.32;;
40669;SDS011;26355;45.528;9.234;2023-08-20T09:13:25;15.30;;;6.60;;
40669;SDS011;26355;45.528;9.234;2023-08-20T09:15:57;17.20;;;7.35;;
40669;SDS011;26355;45.528;9.234;2023-08-20T09:18:23;15.77;;;6.60;;
40669;SDS011;26355;45.528;9.234;2023-08-20T09:20:49;15.73;;;7.10;;
40669;SDS011;26355;45.528;9.234;2023-08-20T09:23:15;14.53;;;6.30;;
40669;SDS011;26355;45.528;9.234;2023-08-20T09:25:41;15.32;;;6.38;;
40669;SDS011;26355;45.528;9.234;2023-08-20T09:30:34;15.23;;;6.93;;
40669;SDS011;26355;45.528;9.234;2023-08-20T09:33:03;14.67;;;7.00;;
40669;SDS011;26355;45.528;9.234;2023-08-20T09:35:30;17.27;;;7.00;;
40669;SDS011;26355;45.528;9.234;2023-08-20T09:37:59;16.80;;;6.97;;
40669;SDS011;26355;45.528;9.234;2023-08-20T09:40:26;14.15;;;6.32;;
40669;SDS011;26355;45.528;9.234;2023-08-20T09:45:19;15.60;;;6.40;;
40669;SDS011;26355;45.528;9.234;2023-08-20T09:47:46;14.07;;;6.90;;
40669;SDS011;26355;45.528;9.234;2023-08-20T09:50:14;15.73;;;6.80;;
40669;SDS011;26355;45.528;9.234;2023-08-20T09:52:59;16.85;;;6.68;;
40669;SDS011;26355;45.528;9.234;2023-08-20T09:55:32;15.55;;;6.93;;
40669;SDS011;26355;45.528;9.234;2023-08-20T09:58:00;14.32;;;6.47;;
40669;SDS011;26355;45.528;9.234;2023-08-20T10:02:53;15.65;;;7.22;;
40669;SDS011;26355;45.528;9.234;2023-08-20T10:05:19;15.27;;;7.18;;
40669;SDS011;26355;45.528;9.234;2023-08-20T10:07:46;16.55;;;7.68;;
40669;SDS011;26355;45.528;9.234;2023-08-20T10:10:12;20.05;;;7.63;;
40669;SDS011;26355;45.528;9.234;2023-08-20T10:12:38;16.13;;;7.20;;
40669;SDS011;26355;45.528;9.234;2023-08-20T10:15:05;16.25;;;7.32;;
40669;SDS011;26355;45.528;9.234;2023-08-20T10:17:33;15.05;;;6.68;;
40669;SDS011;26355;45.528;9.234;2023-08-20T10:24:58;15.98;;;7.22;;
40669;SDS011;26355;45.528;9.234;2023-08-20T10:27:28;19.35;;;6.85;;
40669;SDS011;26355;45.528;9.234;2023-08-20T10:29:56;16.55;;;6.68;;
40669;SDS011;26355;45.528;9.234;2023-08-20T10:35:58;15.77;;;6.75;;
40669;SDS011;26355;45.528;9.234;2023-08-20T10:38:05;16.30;;;6.78;;
40669;SDS011;26355;45.528;9.234;2023-08-20T10:48:31;14.93;;;6.97;;
40669;SDS011;26355;45.528;9.234;2023-08-20T10:51:05;15.57;;;7.13;;
40669;SDS011;26355;45.528;9.234;2023-08-20T10:53:42;16.73;;;7.47;;
40669;SDS011;26355;45.528;9.234;2023-08-20T10:56:13;16.02;;;6.93;;
40669;SDS011;26355;45.528;9.234;2023-08-20T10:58:41;17.67;;;7.85;;
40669;SDS011;26355;45.528;9.234;2023-08-20T11:01:15;15.93;;;7.07;;
40669;SDS011;26355;45.528;9.234;2023-08-20T11:03:46;15.73;;;7.05;;
40669;SDS011;26355;45.528;9.234;2023-08-20T11:06:13;17.20;;;7.25;;
40669;SDS011;26355;45.528;9.234;2023-08-20T11:08:39;16.45;;;7.65;;
40669;SDS011;26355;45.528;9.234;2023-08-20T11:11:06;17.75;;;7.93;;
40669;SDS011;26355;45.528;9.234;2023-08-20T11:15:59;19.75;;;7.50;;
40669;SDS011;26355;45.528;9.234;2023-08-20T11:18:27;15.48;;;7.38;;
40669;SDS011;26355;45.528;9.234;2023-08-20T11:20:53;16.17;;;7.57;;
40669;SDS011;26355;45.528;9.234;2023-08-20T11:23:19;18.05;;;7.35;;
40669;SDS011;26355;45.528;9.234;2023-08-20T11:25:46;14.43;;;6.88;;
40669;SDS011;26355;45.528;9.234;2023-08-20T11:28:12;14.90;;;7.00;;
40669;SDS011;26355;45.528;9.234;2023-08-20T11:30:38;14.70;;;7.55;;
40669;SDS011;26355;45.528;9.234;2023-08-20T11:33:03;17.30;;;7.63;;
40669;SDS011;26355;45.528;9.234;2023-08-20T11:35:30;17.67;;;7.38;;
40669;SDS011;26355;45.528;9.234;2023-08-20T11:37:57;16.25;;;7.82;;
40669;SDS011;26355;45.528;9.234;2023-08-20T11:42:49;16.00;;;7.47;;
40669;SDS011;26355;45.528;9.234;2023-08-20T11:45:15;15.17;;;7.73;;
40669;SDS011;26355;45.528;9.234;2023-08-20T11:47:41;17.03;;;7.60;;
40669;SDS011;26355;45.528;9.234;2023-08-20T11:54:59;18.35;;;7.38;;
40669;SDS011;26355;45.528;9.234;2023-08-20T11:57:25;16.95;;;7.68;;
40669;SDS011;26355;45.528;9.234;2023-08-20T11:59:51;15.67;;;7.67;;
40669;SDS011;26355;45.528;9.234;2023-08-20T12:02:24;16.23;;;8.10;;
40669;SDS011;26355;45.528;9.234;2023-08-20T12:04:51;15.82;;;8.07;;
40669;SDS011;26355;45.528;9.234;2023-08-20T12:07:16;16.50;;;7.67;;
40669;SDS011;26355;45.528;9.234;2023-08-20T12:09:42;15.57;;;7.80;;
40669;SDS011;26355;45.528;9.234;2023-08-20T12:12:08;17.93;;;7.47;;
40669;SDS011;26355;45.528;9.234;2023-08-20T12:14:34;15.80;;;7.82;;
40669;SDS011;26355;45.528;9.234;2023-08-20T12:21:51;16.07;;;7.57;;
40669;SDS011;26355;45.528;9.234;2023-08-20T12:24:17;15.20;;;7.33;;
40669;SDS011;26355;45.528;9.234;2023-08-20T12:26:46;16.15;;;7.32;;
40669;SDS011;26355;45.528;9.234;2023-08-20T12:29:12;16.08;;;7.82;;
40669;SDS011;26355;45.528;9.234;2023-08-20T12:31:38;16.10;;;8.00;;
40669;SDS011;26355;45.528;9.234;2023-08-20T12:34:04;17.80;;;8.40;;
40669;SDS011;26355;45.528;9.234;2023-08-20T12:36:30;16.63;;;8.37;;
40669;SDS011;26355;45.528;9.234;2023-08-20T12:38:56;17.57;;;7.43;;
40669;SDS011;26355;45.528;9.234;2023-08-20T12:41:22;16.48;;;7.82;;
40669;SDS011;26355;45.528;9.234;2023-08-20T12:43:48;16.60;;;8.23;;
40669;SDS011;26355;45.528;9.234;2023-08-20T12:46:13;18.13;;;8.70;;
40669;SDS011;26355;45.528;9.234;2023-08-20T12:48:39;15.43;;;7.23;;
40669;SDS011;26355;45.528;9.234;2023-08-20T12:51:05;15.68;;;8.32;;
40669;SDS011;26355;45.528;9.234;2023-08-20T12:53:31;15.63;;;7.63;;
40669;SDS011;26355;45.528;9.234;2023-08-20T12:55:57;17.37;;;8.20;;
40669;SDS011;26355;45.528;9.234;2023-08-20T12:58:23;17.23;;;7.97;;
40669;SDS011;26355;45.528;9.234;2023-08-20T13:00:49;16.60;;;8.18;;
40669;SDS011;26355;45.528;9.234;2023-08-20T13:03:16;16.58;;;7.55;;
40669;SDS011;26355;45.528;9.234;2023-08-20T13:05:42;16.77;;;8.25;;
40669;SDS011;26355;45.528;9.234;2023-08-20T13:08:08;16.80;;;8.33;;
40669;SDS011;26355;45.528;9.234;2023-08-20T13:10:36;16.83;;;8.20;;
40669;SDS011;26355;45.528;9.234;2023-08-20T13:17:54;17.60;;;8.80;;
40669;SDS011;26355;45.528;9.234;2023-08-20T13:20:20;16.88;;;8.05;;
40669;SDS011;26355;45.528;9.234;2023-08-20T13:22:48;15.70;;;7.57;;
40669;SDS011;26355;45.528;9.234;2023-08-20T13:27:40;16.50;;;7.82;;
40669;SDS011;26355;45.528;9.234;2023-08-20T13:30:10;17.85;;;8.38;;
40669;SDS011;26355;45.528;9.234;2023-08-20T13:32:36;15.52;;;7.80;;
40669;SDS011;26355;45.528;9.234;2023-08-20T13:37:31;16.85;;;7.95;;
40669;SDS011;26355;45.528;9.234;2023-08-20T13:39:57;15.75;;;8.05;;
40669;SDS011;26355;45.528;9.234;2023-08-20T13:42:23;16.73;;;8.75;;
40669;SDS011;26355;45.528;9.234;2023-08-20T13:44:49;17.10;;;8.83;;
40669;SDS011;26355;45.528;9.234;2023-08-20T13:47:14;16.07;;;8.57;;
40669;SDS011;26355;45.528;9.234;2023-08-20T13:49:40;15.23;;;7.87;;
40669;SDS011;26355;45.528;9.234;2023-08-20T13:52:06;16.40;;;7.93;;
40669;SDS011;26355;45.528;9.234;2023-08-20T13:54:32;17.33;;;8.70;;
40669;SDS011;26355;45.528;9.234;2023-08-20T13:56:59;14.82;;;7.65;;
40669;SDS011;26355;45.528;9.234;2023-08-20T13:59:25;15.17;;;8.40;;
40669;SDS011;26355;45.528;9.234;2023-08-20T14:01:51;14.90;;;7.60;;
40669;SDS011;26355;45.528;9.234;2023-08-20T14:04:16;16.03;;;7.40;;
40669;SDS011;26355;45.528;9.234;2023-08-20T14:06:42;17.77;;;7.37;;
40669;SDS011;26355;45.528;9.234;2023-08-20T14:09:07;18.27;;;8.90;;
40669;SDS011;26355;45.528;9.234;2023-08-20T14:11:33;16.00;;;7.63;;
40669;SDS011;26355;45.528;9.234;2023-08-20T14:13:59;16.20;;;7.80;;
40669;SDS011;26355;45.528;9.234;2023-08-20T14:16:24;17.33;;;7.93;;
40669;SDS011;26355;45.528;9.234;2023-08-20T14:18:50;17.60;;;8.27;;
40669;SDS011;26355;45.528;9.234;2023-08-20T14:21:16;17.23;;;8.00;;
40669;SDS011;26355;45.528;9.234;2023-08-20T14:23:41;15.87;;;8.50;;
40669;SDS011;26355;45.528;9.234;2023-08-20T14:26:07;16.47;;;7.90;;
40669;SDS011;26355;45.528;9.234;2023-08-20T14:28:40;15.67;;;7.67;;
40669;SDS011;26355;45.528;9.234;2023-08-20T14:31:05;17.02;;;8.02;;
40669;SDS011;26355;45.528;9.234;2023-08-20T14:33:31;15.23;;;7.97;;
40669;SDS011;26355;45.528;9.234;2023-08-20T14:35:56;16.63;;;8.30;;
40669;SDS011;26355;45.528;9.234;2023-08-20T14:38:22;15.60;;;7.90;;
40669;SDS011;26355;45.528;9.234;2023-08-20T14:40:48;17.33;;;8.83;;
40669;SDS011;26355;45.528;9.234;2023-08-20T14:43:13;16.90;;;7.83;;
40669;SDS011;26355;45.528;9.234;2023-08-20T14:45:39;17.67;;;7.87;;
40669;SDS011;26355;45.528;9.234;2023-08-20T14:48:04;17.40;;;8.30;;
40669;SDS011;26355;45.528;9.234;2023-08-20T14:50:30;17.07;;;8.17;;
40669;SDS011;26355;45.528;9.234;2023-08-20T14:52:57;17.60;;;7.75;;
40669;SDS011;26355;45.528;9.234;2023-08-20T14:55:29;17.77;;;8.43;;
40669;SDS011;26355;45.528;9.234;2023-08-20T14:57:54;17.30;;;8.60;;
40669;SDS011;26355;45.528;9.234;2023-08-20T15:00:20;15.83;;;8.27;;
40669;SDS011;26355;45.528;9.234;2023-08-20T15:02:47;15.98;;;8.32;;
40669;SDS011;26355;45.528;9.234;2023-08-20T15:05:13;15.97;;;7.80;;
40669;SDS011;26355;45.528;9.234;2023-08-20T15:07:39;17.57;;;7.87;;
40669;SDS011;26355;45.528;9.234;2023-08-20T15:10:05;17.83;;;8.10;;
40669;SDS011;26355;45.528;9.234;2023-08-20T15:15:01;16.85;;;8.23;;
40669;SDS011;26355;45.528;9.234;2023-08-20T15:17:28;18.33;;;8.73;;
40669;SDS011;26355;45.528;9.234;2023-08-20T15:19:54;16.77;;;7.63;;
40669;SDS011;26355;45.528;9.234;2023-08-20T15:22:20;16.80;;;8.43;;
40669;SDS011;26355;45.528;9.234;2023-08-20T15:24:46;17.27;;;8.27;;
40669;SDS011;26355;45.528;9.234;2023-08-20T15:29:41;17.75;;;9.40;;
40669;SDS011;26355;45.528;9.234;2023-08-20T15:32:07;18.25;;;8.15;;
40669;SDS011;26355;45.528;9.234;2023-08-20T15:34:32;16.47;;;8.37;;
40669;SDS011;26355;45.528;9.234;2023-08-20T15:36:58;17.60;;;8.37;;